Latest Observation

111 Stations

10 Minute Data
as of 9/1/26 9:40 AM PDT
Station Date Time Temp (°F) RH (%) Dew Pt (°F) Wind Spd (mph) Wind Dir (°) Wind Gust (mph) Wind Gst Dir (°) Latest Rain (In) Soil Moist (%) Soil Temp (°F) Daily Rain (In) Daily Min Temp (°F) Daily Max Temp (°F) Daily Max Wind (mph)
Hobart Mills 9/1/26 0940 61.2   1.5 33   11 32.1   5.6 7.4   5.6 SW | 226 17.0   12.3 SW | 232 0.00 7.6   0.0 65.8   0.4 0.00 46.7   6.6 61.6   1.1 17.0   12.3
Prosser Dam 9/1/26 0940 62.9   6.0 29   22 30.2   9.0 10.3   8.4 S | 184 18.9   13.8 SSW | 196 0.00 5.4   0.0 63.3   0.3 0.00 45.4   8.5 63.2   5.4 21.4   16.3
West Incline Village 9/1/26 0940 55.7   5.7 40   3 32.0   7.2 6.4   5.8 S | 181 18.9   16.4 S | 178 0.00 11.8   0.1 58.9   0.0 0.00 48.6   4.5 56.1   6.1 18.9   14.7
Incline Village (Fairview Blvd) 9/1/26 0940 56.7   4.2 44   16 34.9   12.0 3.5   3.5 SSW | 195 8.6   8.6 SSE | 161 0.00 7.7   0.1 72.2   0.0 0.00 51.0   3.2 56.9   4.4 10.7   8.3
Incline Village (Diamond Peak) 9/1/26 0930 55.4 45 34.5 0.0 N | 0 0.0 ENE | 59 0.00 2.5 62.0 0.00 49.6 56.0 9.1
Incline Village (Mill Creek) 5/30/36 1610 74.5 37 46.5 0.5 SW | 236 1.7 SSW | 213 0.00 0.0 0.0 0.00 74.4 74.5 1.7
Incline Village (Lakeshore Blvd) 9/1/26 0940 59.6   1.8 51   22 41.5   11.4 3.5   2.4 SSW | 202 8.3   5.1 S | 188 0.00 22.9   3.2 58.3   0.5 0.00 46.6   0.2 60.0   2.0 8.6   5.3
Glenbrook 9/1/26 0940 60.4   1.4 39   29 35.3   15.8 6.5   3.4 WSW | 243 10.7   5.7 WSW | 250 0.00 42.9   0.1 59.5   0.2 0.00 51.6   2.4 60.6   2.2 17.4   12.4
Zephyr Cove 9/1/26 0940 60.4   2.1 30   26 29.1   17.6 1.3   0.1 SSE | 166 6.8   2.5 WSW | 246 0.00 2.8   0.1 62.2   0.3 0.00 51.6   0.4 60.7   2.1 8.4   4.1
Kingsbury Grade 9/1/26 0940 59.9   3.0 31   12 28.8   10.7 3.1   1.4 WSW | 244 11.3   6.7 SW | 231 0.00 2.4   0.1 67.2   0.6 0.00 47.8   0.8 60.2   3.4 11.3   6.7
South Daggett Pass (Ridge) 9/1/26 0940 56.1   4.2 37   7 30.1   8.4 1.7   0.3 NNW | 346 5.5   1.0 NW | 318 0.00 2.2   0.0 64.6   0.3 0.00 48.1   5.5 57.3   3.6 17.8   10.4
Palomino Valley 9/1/26 0940 70.1   0.9 24   3 31.9   2.4 4.4   3.3 SE | 145 9.6   4.8 SE | 128 0.00 6.7   0.1 77.1   0.7 0.00 53.3   6.1 70.4   0.1 9.6   4.0
East Cold Springs 9/1/26 0940 66.0   3.6 26   2 30.3   5.3 14.5   11.7 SW | 223 27.2   20.7 SW | 225 0.00 1.6   0.0 71.7   0.5 0.00 56.0   0.1 66.7   3.7 27.2   15.6
Peavine 8/22/26 1700 81.6   1.5 27   0 44.0   1.5 22.7   10.4 SW | 225 48.4   26.2 SW | 220 0.00 - 53.4   0.0 0.00 69.4   2.1 87.6   2.1 48.4   26.2
West Verdi Peak 9/1/26 1040 62.2   5.0 30   1 30.0   3.8 4.4   2.0 SSW | 200 16.3   7.6 ESE | 112 0.00 6.5   0.1 69.8   0.3 0.00 51.9   0.5 62.5   5.4 26.4   15.8
West Verdi 9/1/26 0940 67.6   0.3 27   9 32.1   7.9 5.0   4.1 SSW | 206 14.5   10.1 SSW | 202 0.00 6.2   0.0 80.8   0.7 0.00 57.7   7.5 68.1   0.6 28.9   23.0
South Verdi 9/1/26 0940 64.7   2.7 28   7 30.8   8.2 16.6   13.5 SW | 215 24.2   16.8 SSW | 212 0.00 10.6   0.0 71.0   0.5 0.00 57.3   3.7 64.9   3.8 38.5   20.6
Northwest Reno 9/1/26 0930 66.8   0.3 28   9 33.1   6.6 3.4   0.1 SE | 136 8.3   1.0 SE | 143 0.00 25.3   0.2 77.9   1.3 0.00 59.1   0.3 67.4   0.4 45.1   37.8
North Lawton 8/28/26 1620 63.8   17.1 74   52 55.4   16.5 1.5   11.6 ESE | 121 5.1   19.0 SE | 124 0.00 - 78.2   0.0 0.05 59.2   7.5 71.9   13.3 20.4   4.6
West Reno (Mogul) 9/1/26 0940 66.7   1.0 28   6 32.6   5.6 5.3   4.2 NNW | 331 11.2   3.5 NNW | 336 0.00 19.7   0.0 79.4   0.2 0.00 57.2   2.7 67.0   1.3 19.1   9.6
Caughlin (Hunter Lake Trail) 9/1/26 0940 64.9   1.0 32   8 34.5   6.5 3.7   3.5 NNE | 20 7.2   5.0 N | 353 0.00 16.6   0.0 74.6   0.5 0.00 57.0   2.1 65.3   1.6 12.5   3.7
ArrowCreek 9/1/26 0940 67.9   1.9 31   8 35.8   4.5 6.4   4.7 S | 174 12.0   8.3 SE | 145 0.00 - 32.0   0.0 0.00 55.4   0.2 68.6   2.4 14.7   5.1
Tracy 9/1/26 0940 71.0   2.2 23   8 31.8   5.5 10.9   9.2 WSW | 246 17.3   12.5 W | 276 0.00 16.1   0.0 80.1   1.1 0.00 61.4   3.8 71.5   1.8 17.3   8.0
Virginia Highlands 9/1/26 0940 64.0   5.3 27   1 29.4   3.5 6.8   3.5 SSW | 203 13.0   5.5 SSE | 166 0.00 8.0   0.0 75.0   0.3 0.00 55.9   3.6 64.4   5.5 16.3   8.7
Virginia City 9/1/26 0940 62.1   5.2 29   2 29.7   6.1 14.2   10.2 S | 176 25.0   17.4 S | 185 0.00 4.8   0.1 74.6   0.8 0.00 55.4   4.8 62.7   4.7 27.1   19.5
Six Mile Canyon 9/1/26 0940 71.1   0.8 22   11 30.5   9.5 13.7   11.5 SW | 234 22.6   17.4 WSW | 250 0.00 12.4   0.1 77.6   1.5 0.00 61.6   4.2 71.4   0.4 22.6   17.3
Mt Rose Highway 9/1/26 0940 57.9   7.0 39   5 32.9   2.5 3.6   1.7 SSW | 194 11.4   6.6 S | 190 0.00 7.4   0.0 62.8   0.0 0.00 52.1   3.9 58.5   6.7 24.3   16.1
Pleasant Valley 9/1/26 0940 68.5   0.3 27   9 33.3   7.3 13.8   9.0 SW | 219 19.9   13.0 WSW | 238 0.00 2.4   0.1 78.4   1.1 0.00 51.3   0.6 69.2   0.2 25.3   15.9
New Washoe City 9/1/26 0940 67.5   0.4 26   11 31.3   9.1 6.5   6.4 S | 181 10.8   8.2 S | 178 0.00 3.5   0.0 74.5   0.1 0.00 58.8   6.8 67.8   0.9 17.1   8.3
Franktown Creek 9/1/26 0940 67.6   0.5 29   8 34.6   6.7 4.4   4.4 SSW | 206 11.6   11.6 S | 174 0.00 7.0   0.0 73.0   0.1 0.00 56.3   6.6 69.6   1.1 27.2   24.1
Musgrove Creek 9/1/26 0940 66.6   0.2 29   16 33.0   10.9 2.9   0.1 E | 93 9.2   3.8 SE | 125 0.00 10.2   0.1 61.0   0.2 0.00 55.2   2.5 67.1   0.5 14.4   9.1
East Carson 11/23/24 0110 28.6   28.4 - - 4.7   11.0 SW | 220 14.7   10.1 SW | 219 0.02 - 50.9   0.1 0.02 -25.9   79.1 42.9   14.6 16.0   10.7
Kings Canyon 9/1/26 0940 66.8   0.0 28   14 32.4   10.3 4.7   1.9 ESE | 123 9.3   4.2 E | 96 0.00 4.2   0.0 69.4   1.1 0.00 61.1   10.0 68.4   1.3 31.7   24.7
Carson City (Voltaire Canyon) 9/1/26 0940 66.6   0.5 28   14 32.3   10.5 9.4   5.8 SSE | 165 15.8   8.9 S | 172 0.00 2.8   0.0 79.3   0.1 0.00 61.3   1.8 69.1   0.4 26.8   15.0
Jacks Valley 9/1/26 0940 66.7   1.1 27   13 31.5   11.2 5.3   3.4 S | 176 9.8   5.0 SSW | 197 0.00 4.5   0.0 75.4   1.8 0.00 57.9   3.9 67.1   1.7 25.8   19.2
Genoa 9/1/26 0940 70.4   2.5 28   14 35.4   8.6 1.0   0.9 SE | 129 5.5   3.2 ESE | 108 0.00 2.4   0.1 68.5   2.2 0.00 61.6   7.1 70.7   2.3 13.9   10.4
South Genoa (Walleys Hot Springs) 9/1/26 0940 70.0   2.2 28   14 35.8   8.5 2.9   1.9 E | 87 6.1   2.2 ENE | 77 0.00 5.0   0.1 74.6   0.1 0.00 56.5   10.7 70.4   1.7 26.7   22.5
SW Gardnerville (HWY 88) 9/1/26 0940 69.3   6.2 25   29 31.5   14.3 12.2   11.8 SSE | 154 18.3   13.7 SSE | 158 0.00 2.8   0.0 70.7   0.6 0.00 59.7   13.6 69.9   6.4 19.2   13.3
Sheridan 9/1/26 0940 69.0   3.7 25   22 32.1   12.6 2.6   0.6 NW | 309 7.0   3.0 SW | 222 0.00 1.1   0.0 73.9   0.3 0.00 58.2   7.5 69.6   3.7 14.8   9.7
Ruhenstroth 9/1/26 0940 68.0   0.6 22   15 28.2   12.1 6.9   4.0 SSW | 193 15.2   9.4 S | 170 0.00 6.9   0.1 74.4   2.2 0.00 60.0   10.2 68.8   1.2 20.5   13.0
Double Spring 9/1/26 0940 64.5   4.5 23   7 25.5   10.8 3.2   0.1 ESE | 118 15.5   9.3 SE | 144 0.00 25.4   0.0 70.6   1.4 0.00 50.9   5.2 65.2   4.1 15.5   9.3
North Topaz Lake 9/1/26 0940 67.6   1.4 23   7 28.6   8.0 3.6   1.4 ESE | 103 7.2   2.1 E | 94 0.00 7.4   0.1 73.0   1.3 0.00 61.0   2.1 68.3   1.8 16.3   9.8
Wild Oat Mountain 9/1/26 0940 64.9   1.6 23   16 26.6   14.7 5.7   4.1 ESE | 123 13.7   8.1 ESE | 103 0.00 5.7   0.0 70.0   0.9 0.00 58.2   0.9 65.4   2.1 24.8   18.3
Smith Valley 9/1/26 0940 71.8   4.7 19   17 27.2   12.2 10.2   6.8 SW | 224 18.5   12.2 SSW | 210 0.00 2.8   0.0 76.3   1.4 0.00 59.8   4.4 72.3   3.8 22.6   10.3
Pine Grove Mountain 9/1/26 0940 55.6   3.2 26   9 20.9   10.3 4.7   1.4 SW | 216 8.8   2.0 SSW | 194 0.00 7.0   0.3 64.3   1.4 0.00 50.6   4.8 57.5   1.9 11.9   4.0
Paradise Hill 9/1/26 0940 72.9   1.2 23   3 32.7   4.0 7.6   0.8 WSW | 249 12.8   1.2 SW | 227 0.00 10.2   0.0 73.2   2.3 0.00 55.3   11.5 74.0   1.5 12.8   3.0
Winnemucca 9/1/26 0940 71.2   2.4 21   3 29.6   0.7 10.9   1.8 SW | 220 16.8   1.9 SSW | 199 0.00 5.8   0.1 75.5   1.2 0.00 65.0   15.6 71.5   2.1 19.8   4.8
NE Elko 9/1/26 0940 66.9   3.2 39   12 41.4   11.7 3.4   1.3 ENE | 69 8.1   3.0 E | 89 0.00 5.6   0.1 68.6   0.5 0.00 46.2   7.3 67.7   3.3 9.4   3.6
North Elko 9/1/26 0940 68.9   4.6 37   11 41.6   12.6 7.2   3.7 E | 98 12.7   4.5 E | 81 0.00 24.9   0.1 72.5   0.9 0.00 57.5   6.5 69.5   4.6 12.7   2.0
South Elko 9/1/26 0940 70.4   13.7 29   8 36.9   18.6 13.7   13.0 S | 182 21.6   18.8 S | 180 0.00 13.6   0.0 67.4   0.7 0.00 55.7   1.1 70.8 21.6   9.9
Lamoille 9/1/26 0940 64.5   2.8 43   10 41.8   9.1 4.7   0.7 NE | 42 7.9   0.6 NE | 49 0.00 6.4   0.1 65.8   0.1 0.00 51.7   3.3 65.4   3.4 10.6   2.6
Reid Gardner Sub 9/1/26 0940 88.1   1.1 41   11 61.7   7.4 10.8   10.1 SSW | 192 22.0   19.7 S | 177 0.00 24.4   1.0 89.1   0.4 0.00 71.9   2.6 88.5   1.3 22.0   16.3
Corn Creek 9/1/26 0940 81.9   2.1 19   10 35.9   12.4 20.3   4.8 ENE | 73 29.6   7.3 ENE | 74 0.00 3.1   0.1 86.3   1.3 0.00 71.9   1.9 82.7   1.9 29.6   4.1
Lucky Strike 9/1/26 0940 73.8   0.7 18   15 28.1   14.5 14.6   2.1 SSE | 159 28.9   9.6 SE | 143 0.00 3.1   0.0 80.1   0.1 0.00 64.8   4.2 74.3   0.8 28.9   6.7
Lower Angel Peak 9/1/26 0940 68.6   3.6 24   11 30.2   12.4 7.5   0.1 SSE | 152 16.8   0.4 SSE | 161 0.00 3.2   0.1 73.8   0.2 0.00 60.0   1.8 69.2   3.8 28.4   8.6
Angel Peak 9/1/26 0940 55.2   5.1 28   19 22.4   17.2 18.6   5.1 S | 190 28.7   7.5 SSW | 200 0.00 2.5   0.0 62.4   1.2 0.00 51.2   3.7 56.0   5.1 53.2   25.6
Upper Kyle Canyon 9/1/26 0940 60.0   3.3 29   14 27.6   12.7 7.5   1.4 E | 86 21.6   2.7 E | 91 0.00 7.8   0.0 75.1   0.5 0.00 55.8   4.5 61.0   4.2 42.1   9.4
Mt Charleston 9/1/26 0940 61.0   3.9 29   13 28.2   12.8 4.1   0.6 ENE | 75 15.9   2.2 S | 188 0.00 13.4   0.0 69.1   0.2 0.00 57.4   1.8 62.0   3.9 29.7   13.3
Mid Kyle Canyon 9/1/26 0940 67.7   4.2 24   10 30.0   12.3 11.2   1.5 SSW | 197 22.4   3.1 SSW | 212 0.00 5.8   0.0 74.5   0.3 0.00 59.6   0.9 68.6   4.2 33.0   13.8
Blue Diamond 9/1/26 0940 82.6   2.0 17   10 33.4   13.6 7.5   1.4 WNW | 287 14.5   3.2 WNW | 292 0.00 1.2   0.0 85.2   0.2 0.00 71.5   1.4 83.7   2.0 14.7   3.2
Artesian Sub 9/1/26 0940 88.7   2.7 16   12 37.4   16.4 7.3   0.4 ESE | 105 11.6   2.1 ESE | 111 0.00 11.7   0.0 94.0   0.6 0.00 78.4   2.7 89.5   3.0 12.0   3.8
North Henderson 9/1/26 0940 87.4   3.2 42   6 61.7   1.3 10.9   5.3 SE | 141 17.8   8.3 SE | 132 0.00 10.6   0.2 98.1   1.0 0.00 81.0   3.4 89.0   2.8 17.8   2.2
Sandy Valley 9/1/26 0940 81.0   3.2 17   12 31.7   16.9 4.0   0.6 ESE | 109 8.1   0.8 E | 97 0.00 8.2   0.3 87.2   1.4 0.00 73.3   0.9 81.4   3.0 10.9   1.2
Searchlight 9/1/26 0940 78.0   3.2 54   12 60.3   4.2 13.6   0.8 S | 169 22.2   1.4 S | 176 0.00 6.0   0.1 85.6   2.3 0.00 68.0   2.9 78.9   3.1 24.7   3.8
Laughlin 9/1/26 0940 92.3   3.2 46   8 68.5   2.4 15.3   4.3 SSE | 154 22.0   5.1 SSE | 154 0.00 4.5   0.1 100.2   1.6 0.00 86.0   3.6 92.7   3.1 22.1   2.2
31Mission Hills 9/1/26 0940 83.4   3.9 39   5 56.2   0.1 13.7   3.6 S | 177 25.3   7.6 S | 177 0.00 7.0   0.5 86.2   2.6 0.00 76.8   4.1 83.7   4.0 25.3   6.1
32 Enterprise Sierra Cliffs 9/1/26 0940 82.9   2.8 21   2 39.1   5.2 9.0   0.7 S | 171 15.9   2.5 SSW | 204 0.00 1.3   0.1 83.0   1.6 0.00 76.3   1.7 83.7   2.5 19.9   1.5
29 Calico Basin 9/1/26 0940 80.7   0.2 13   14 25.4   18.9 9.6   4.9 E | 98 15.0   6.7 E | 101 0.00 2.6   0.0 84.9   0.6 0.00 72.1   3.3 81.4   1.8 18.9   5.5
28 Indian Springs 9/1/26 0940 81.3   3.0 14   10 27.8   15.7 5.2   4.2 ENE | 66 8.3   5.0 NE | 54 0.00 4.6   0.0 86.5   0.9 0.00 69.4   0.7 81.6   3.3 11.2   2.1
30 Jean 9/1/26 0940 80.6   3.8 16   9 29.6   14.6 3.7   3.0 SSE | 167 7.3   3.6 SSW | 208 0.00 5.2   0.1 84.3   1.8 0.00 64.3   6.7 81.2   3.8 9.7   6.3
VC Highlands NW 9/1/26 0940 62.4   4.4 26   2 27.4   5.5 6.0   2.3 S | 183 13.7   7.2 SSW | 212 0.00 1.6   0.1 66.3   1.4 0.00 55.0   4.4 63.1   3.9 16.2   9.2
Glenbrook-Spooner Summit 9/1/26 0940 57.0   5.7 34   8 29.0   10.4 5.8   1.8 W | 261 14.2   5.1 W | 261 0.00 7.8   0.1 65.7   0.9 0.00 50.2   2.5 57.9   5.2 14.7   4.4
Hobo Hot Springs 9/1/26 0940 69.3   1.9 25   14 31.7   9.6 4.2   1.0 SW | 214 10.7   4.1 SSW | 194 0.00 1.0   0.0 69.6   0.7 0.00 56.6   12.1 69.7   1.5 20.5   13.9
Jack Valley Ranch 2 9/1/26 0940 67.1   0.3 26   14 31.4   11.0 2.9   1.1 SSE | 164 8.9   5.1 S | 169 0.00 2.2   0.1 75.9   0.8 0.00 60.4   5.9 67.9   0.3 35.0   25.1
Genoa North 2 9/1/26 0940 69.4   1.9 24   13 30.8   9.6 5.1   2.8 SE | 130 10.1   4.6 SE | 144 0.00 0.8   0.0 74.9   1.7 0.00 60.1   6.2 69.7   1.8 27.2   21.5
Mottsville 2 9/1/26 0940 69.8   5.0 24   23 31.3   12.8 4.1   1.3 ENE | 65 6.8   1.9 NE | 50 0.00 1.2   0.1 73.1   0.4 0.00 57.0   9.5 70.4   4.9 19.1   14.2
Kingsbury Village 3 9/1/26 0940 55.2   5.1 33   0 26.3   4.5 2.3   0.9 W | 276 7.8   4.0 N | 350 0.00 3.2   0.1 60.8   0.4 0.00 45.3   4.0 55.3   5.4 9.1   4.1
Kingsbury-Benjamin Dr 2 9/1/26 0940 57.0   4.4 32   3 27.3   6.0 1.8   0.3 WSW | 246 6.7   0.5 SW | 221 0.00 3.2   0.1 67.8   0.5 0.00 48.9   4.0 57.5   4.7 13.7   6.5
Smith Valley-Wellington 9/1/26 0940 71.7   3.1 17   16 24.0   14.1 8.3   6.1 SW | 224 18.1   13.3 SW | 236 0.00 3.6   0.0 81.0   1.1 0.00 61.5   6.0 71.8   2.6 18.1   4.1
Sheridan South 2 9/1/26 0940 69.6   4.8 21   23 28.4   14.0 7.8   6.2 SSE | 168 16.4   12.3 SSE | 157 0.00 0.5   0.0 72.9   0.9 0.00 56.3   9.3 70.0   4.2 18.8   12.8
Silver Springs 9/1/26 0940 72.7   1.3 20   10 28.8   8.9 13.4   11.3 WSW | 247 21.4   15.9 WSW | 248 0.00 5.1   0.1 80.9   2.5 0.00 66.4   12.2 73.6   2.0 28.0   21.9
Fernley 9/1/26 0940 72.0   0.4 19   8 27.7   8.3 7.9   4.6 NW | 316 11.8   3.7 NW | 307 0.00 3.0   0.0 75.7   3.1 0.00 61.2   6.3 72.5   0.2 16.6   7.1
Spanish Springs 9/1/26 0940 69.2   1.9 24   8 30.5   5.7 3.4   1.4 SSE | 165 7.5   3.4 S | 179 0.00 10.4   0.1 76.8   1.6 0.00 53.3   5.5 69.6   2.0 10.9   6.2
Suttcliffe South 2 9/1/26 0940 71.0   0.2 20   3 28.2   3.6 9.5   4.5 SW | 224 14.0   6.0 SW | 217 0.00 4.3   0.0 73.2   2.9 0.00 59.0   7.5 71.5   0.1 15.9   3.4
Lemmon Valley North 9/1/26 0940 67.4   3.5 23   0 28.1   2.7 13.6   12.3 SSW | 201 21.5   17.0 SSW | 198 0.00 2.1   0.0 72.9   1.3 0.00 60.8   21.8 68.2   3.3 27.8   23.3
Lemmon Valley NW 3 9/1/26 0940 67.5   0.8 23   4 28.8   4.9 5.5   3.3 SSW | 203 12.0   7.7 SSW | 201 0.00 1.2   0.0 73.4   3.7 0.00 60.7   14.7 68.1   1.3 23.6   16.6
VC Highlands North 9/1/26 0940 63.8   5.5 25   2 27.2   2.3 8.5   5.9 SW | 223 16.3   11.1 S | 171 0.00 4.8   0.1 70.1   2.9 0.00 56.5   10.4 64.4   5.3 18.8   12.4
Upper Voltaire Cyn 9/1/26 0940 65.0   2.6 26   10 29.2   10.4 6.8   3.2 SE | 139 11.6   4.3 E | 99 0.00 1.2   0.1 72.1   1.2 0.00 57.1   1.4 65.6   2.6 32.8   25.3
Yerington NW 9/1/26 0940 70.1   3.7 26   13 33.6   7.4 4.7   4.4 SE | 126 9.2   7.6 SSE | 147 0.00 7.2   0.0 74.4   2.1 0.00 57.4   11.0 70.4   3.4 9.2   1.5
Spanish Springs SW 9/1/26 0940 68.3   1.0 23   8 28.7   6.8 3.7   1.3 WSW | 238 8.3   3.8 WSW | 248 0.00 1.4   0.1 73.8   1.9 0.00 55.6   3.4 68.9   1.1 9.9   4.2
Cosgrave 2 8/27/26 0750 62.9   4.1 34   3 33.8   1.4 2.6   0.5 WSW | 246 4.1   1.0 W | 267 0.00 3.8   0.1 77.4   2.9 0.00 62.7   3.3 77.4   3.5 11.2   3.9
Winnemucca-Grass Valley 2 9/1/26 0940 70.7   4.5 29   6 36.8   9.3 2.7   1.0 SSE | 156 4.5   2.5 S | 170 0.00 7.8   0.0 66.0   3.8 0.00 51.8   12.1 71.1   4.5 15.2   6.1
Winnemucca-Dutch Flat Rd 9/1/26 0940 71.9   4.6 20   2 29.1   1.8 11.4   3.4 WSW | 253 20.2   8.8 WSW | 255 0.00 6.2   0.1 73.2   1.8 0.00 60.0   8.6 72.1   4.1 21.0   7.2
Paradise Valley 2 9/1/26 0940 68.7   0.4 25   2 31.2   2.0 3.1   0.6 SSE | 167 6.0   0.9 S | 174 0.00 12.7   0.1 71.7   2.3 0.00 52.9   12.6 69.0   0.8 8.8   0.4
Golconda 2 9/1/26 0940 74.4   5.7 19   4 30.0   0.2 7.8   6.3 W | 267 19.6   15.9 WNW | 292 0.00 1.9   0.1 73.2   4.2 0.00 60.4   11.7 75.1   5.9 19.6   8.3
Battle Mountain - South 9/1/26 0940 74.4   4.9 17   3 26.7   0.1 5.0   0.4 S | 184 12.8   4.1 S | 170 0.00 9.2   0.0 73.4   1.2 0.00 57.9   18.4 75.1   4.9 12.8   3.7
Geiger Summit 9/1/26 0940 60.2   6.4 100   0 60.2   6.4 7.0   5.8 SW | 223 14.3   11.2 SW | 217 0.00 6.3   0.0 63.0   1.7 0.00 53.0   4.0 60.4   6.7 21.0   12.7
Combs Canyon 3 9/1/26 0940 68.5   1.6 24   12 30.8   8.7 6.7   5.0 SE | 136 11.6   6.8 ESE | 119 0.00 0.9   0.0 74.5   1.3 0.00 59.1   3.9 69.0   0.9 15.9   8.0
Clear Creek 9/1/26 0940 64.3   3.3 27   10 29.2   10.6 5.0   2.1 SSE | 160 10.8   4.8 SE | 139 0.00 3.4   0.0 71.6   1.4 0.00 59.5   7.5 65.3   2.8 33.5   27.1
Eastlake 2 9/1/26 0940 68.5   3.5 23   25 29.0   16.0 8.6   6.9 S | 185 17.5   13.9 SW | 215 0.00 3.4   0.0 73.5   0.6 0.00 57.9   10.1 69.0   3.4 22.2   17.0
Lovelock-Colado 2 9/1/26 0940 72.9   1.0 22   6 32.4   7.8 2.4   7.4 SE | 124 8.2   7.1 ESE | 113 0.00 - 76.0   1.3 0.00 54.3   2.2 73.4   0.6 8.2   10.6
Spanish Springs NW 9/1/26 0940 69.0   2.1 23   8 30.2   5.5 3.3   1.9 SE | 128 7.1   3.1 SE | 142 0.00 12.6   0.0 69.8   1.6 0.00 55.9   6.9 69.2   1.6 10.1   4.1
Battle Mountain NW 9/1/26 0940 72.6   4.4 21   1 30.4   5.5 5.8   5.0 NNE | 13 10.8   7.3 N | 7 0.00 8.9   0.0 76.4   1.7 0.00 61.0   17.4 73.2   4.1 16.4   5.2
Austin 2 9/1/26 0840 64.8   3.5 18   2 20.4   0.1 20.6   12.0 S | 173 28.6   14.3 S | 177 0.00 2.2   0.0 58.8   3.9 0.00 49.1   11.8 65.1   4.2 33.4   19.1
Elko-Osino 9/1/26 0940 66.5   2.7 37   12 39.4   11.8 7.4   6.5 NE | 48 13.3   10.7 NE | 42 0.00 1.4   0.1 72.8   0.1 0.00 47.3   6.7 66.9   2.6 13.3   2.7
Elko-Bill Fishpond 2 9/1/26 0940 65.0   1.3 38   9 38.7   7.6 2.3   0.8 WNW | 303 6.2   0.0 NW | 304 0.00 3.4   0.0 65.2   0.3 0.00 46.4   4.6 65.6   1.0 11.0   2.4
Spring Creek SE 2 9/1/26 0940 70.5   9.1 32   3 39.1   10.7 15.3   11.9 SSW | 192 21.6   14.0 S | 182 0.00 0.3   0.1 67.5   0.8 0.00 48.8   6.0 71.1   8.8 25.2   13.4
Spring Creek NW 9/1/26 0940 71.8   8.7 30   3 38.9   10.5 16.6   12.9 S | 179 24.2   17.0 S | 181 0.00 2.2   0.0 69.8   0.2 0.00 52.0   4.1 72.7   8.9 24.5   16.9
Elko-Moleen 9/1/26 0940 74.8 25 36.8 12.1 SSE | 166 18.9 SSE | 153 0.00 6.4 77.2 0.00 55.8 75.4 19.8
Elko-West 9/1/26 0940 73.9 27 37.7 11.1 S | 185 25.2 SSW | 200 0.00 32.9 64.6 0.00 52.5 74.8 25.2
Max     92.3 100 68.5 20.6 - 29.6 - 0.00 42.9 100.2 0.00 86.0 92.7 53.2
Avg     68.6 28 33.3 7.3 - 14.1 - 0.00 7.0 72.3 - - - -
Min     55.2 13 20.4 0.0 - 0.0 - 0.00 0.0 0.0 0.00 45.3 55.3 1.7